Time;durP1;ratioP1;P1;durP2;ratioP2;P2;SDS_P1;SDS_P2;PMS_P1;PMS_P2;Temp;Humidity;BMP_temperature;BMP_pressure;BME280_temperature;BME280_humidity;BME280_pressure;Samples;Min_cycle;Max_cycle;Signal;HPM_P1;HPM_P2
2021/09/03 00:02:01;;;;;;;;;;;8.30;89.10;;;;;;5014400;28;20336;-78
2021/09/03 00:04:27;;;;;;;;;;;8.30;89.30;;;;;;5014557;28;19915;-77
2021/09/03 00:06:52;;;;;;;;;;;8.30;89.70;;;;;;5011683;28;19913;-77
2021/09/03 00:09:18;;;;;;;;;;;8.30;89.70;;;;;;5014595;28;19955;-75
2021/09/03 00:11:44;;;;;;;;;;;8.30;89.60;;;;;;5013463;28;19909;-77
2021/09/03 00:14:10;;;;;;;;;;;8.30;89.60;;;;;;5014118;28;19905;-76
2021/09/03 00:16:37;;;;;;;;;;;8.20;89.70;;;;;;5014232;28;20322;-78
2021/09/03 00:19:06;;;;;;;;;;;8.20;89.70;;;;;;5011208;28;19906;-78
2021/09/03 00:21:32;;;;;;;;;;;8.20;89.90;;;;;;5014753;28;19912;-78
2021/09/03 00:23:58;;;;;;;;;;;8.20;90.00;;;;;;5016763;28;19906;-78
2021/09/03 00:26:23;;;;;;;;;;;8.20;90.10;;;;;;5017244;28;19917;-78
2021/09/03 00:28:49;;;;;;;;;;;8.20;90.10;;;;;;5014204;28;19909;-79
2021/09/03 00:31:15;;;;;;;;;;;8.20;90.20;;;;;;5013721;28;20260;-78
2021/09/03 00:33:40;;;;;;;;;;;8.10;90.20;;;;;;5019230;28;19920;-78
2021/09/03 00:36:06;;;;;;;;;;;8.10;90.20;;;;;;5012748;28;20674;-78
2021/09/03 00:38:31;;;;;;;;;;;8.10;90.40;;;;;;5013364;28;20278;-78
2021/09/03 00:40:57;;;;;;;;;;;8.10;90.50;;;;;;5013609;28;19910;-78
2021/09/03 00:43:23;;;;;;;;;;;8.10;90.50;;;;;;5013859;28;19988;-78
2021/09/03 00:45:49;;;;;;;;;;;8.10;90.50;;;;;;5013498;28;19913;-79
2021/09/03 00:48:14;;;;;;;;;;;8.00;90.60;;;;;;5012351;28;19948;-78
2021/09/03 00:50:41;;;;;;;;;;;8.10;90.60;;;;;;5013639;28;19906;-79
2021/09/03 00:53:07;;;;;;;;;;;8.00;90.60;;;;;;5011856;28;19919;-78
2021/09/03 00:55:33;;;;;;;;;;;8.00;90.70;;;;;;5007686;28;19985;-79
2021/09/03 00:57:58;;;;;;;;;;;8.00;90.80;;;;;;5000545;28;19968;-77
2021/09/03 01:00:24;;;;;;;;;;;8.00;90.80;;;;;;5013310;28;19912;-79
2021/09/03 01:02:50;;;;;;;;;;;7.90;90.80;;;;;;5011801;28;19906;-77
2021/09/03 01:05:15;;;;;;;;;;;7.90;90.90;;;;;;5012384;28;20425;-78
2021/09/03 01:07:41;;;;;;;;;;;7.90;90.90;;;;;;5013519;28;19905;-77
2021/09/03 01:10:07;;;;;;;;;;;7.90;90.90;;;;;;5012836;28;19917;-77
2021/09/03 01:12:33;;;;;;;;;;;;;;;;;;5013475;28;19981;-78
2021/09/03 01:14:58;;;;;;;;;;;7.80;90.80;;;;;;5013416;28;19905;-78
2021/09/03 01:17:24;;;;;;;;;;;7.80;91.10;;;;;;5013394;28;19913;-79
2021/09/03 01:19:50;;;;;;;;;;;7.80;91.10;;;;;;5013603;28;19906;-76
2021/09/03 01:22:19;;;;;;;;;;;7.80;91.20;;;;;;5014674;28;19905;-77
2021/09/03 01:24:44;;;;;;;;;;;7.70;91.20;;;;;;5015884;28;19906;-77
2021/09/03 01:27:10;;;;;;;;;;;7.70;91.20;;;;;;5014655;28;19906;-77
2021/09/03 01:29:36;;;;;;;;;;;7.70;91.30;;;;;;5010896;28;19905;-79
2021/09/03 01:32:02;;;;;;;;;;;7.70;91.40;;;;;;5013159;28;19905;-79
2021/09/03 01:34:27;;;;;;;;;;;7.70;91.50;;;;;;5012984;28;19913;-77
2021/09/03 01:36:53;;;;;;;;;;;7.70;91.50;;;;;;5008730;28;19913;-79
2021/09/03 01:39:18;;;;;;;;;;;7.70;91.50;;;;;;5012778;28;19905;-78
2021/09/03 01:41:44;;;;;;;;;;;7.70;91.50;;;;;;5013006;28;19906;-78
2021/09/03 01:44:10;;;;;;;;;;;7.70;91.60;;;;;;5012634;28;19949;-77
2021/09/03 01:46:36;;;;;;;;;;;7.70;91.70;;;;;;5008455;28;19952;-77
2021/09/03 01:49:02;;;;;;;;;;;7.70;91.80;;;;;;5009746;28;20330;-79
2021/09/03 01:51:27;;;;;;;;;;;7.70;91.80;;;;;;5013112;28;19932;-78
2021/09/03 01:53:53;;;;;;;;;;;7.70;91.80;;;;;;5013020;28;20357;-78
2021/09/03 01:56:19;;;;;;;;;;;7.60;91.80;;;;;;5013027;28;19913;-79
2021/09/03 01:58:44;;;;;;;;;;;7.70;91.90;;;;;;5013012;28;20421;-78
2021/09/03 02:01:10;;;;;;;;;;;7.60;91.90;;;;;;5012948;28;19971;-78
2021/09/03 02:03:35;;;;;;;;;;;7.60;91.90;;;;;;5013153;28;19905;-78
2021/09/03 02:06:01;;;;;;;;;;;7.60;92.00;;;;;;5015619;28;20370;-77
2021/09/03 02:08:27;;;;;;;;;;;7.60;92.00;;;;;;5017771;28;20012;-77
2021/09/03 02:10:52;;;;;;;;;;;7.60;92.00;;;;;;5017540;28;19955;-77
2021/09/03 02:13:18;;;;;;;;;;;7.60;92.00;;;;;;5017355;28;19909;-76
2021/09/03 02:15:44;;;;;;;;;;;7.50;92.20;;;;;;5016747;28;19913;-76
2021/09/03 02:18:09;;;;;;;;;;;7.50;92.20;;;;;;5016689;28;19905;-77
2021/09/03 02:20:35;;;;;;;;;;;7.50;92.30;;;;;;5016718;28;19960;-78
2021/09/03 02:23:00;;;;;;;;;;;7.50;92.30;;;;;;5016941;28;19905;-77
2021/09/03 02:25:26;;;;;;;;;;;7.50;92.30;;;;;;5017129;28;19940;-77
2021/09/03 02:27:52;;;;;;;;;;;7.50;92.30;;;;;;5016420;28;19936;-78
2021/09/03 02:30:17;;;;;;;;;;;7.50;92.30;;;;;;5016278;28;19955;-76
2021/09/03 02:32:43;;;;;;;;;;;7.50;92.40;;;;;;5016947;28;19963;-76
2021/09/03 02:35:09;;;;;;;;;;;7.50;92.70;;;;;;5016328;28;20279;-79
2021/09/03 02:37:34;;;;;;;;;;;7.50;92.50;;;;;;5015033;28;20343;-78
2021/09/03 02:40:00;;;;;;;;;;;7.50;92.50;;;;;;5015874;28;19997;-77
2021/09/03 02:42:26;;;;;;;;;;;7.50;92.60;;;;;;5016067;28;20302;-77
2021/09/03 02:44:51;;;;;;;;;;;7.40;92.60;;;;;;5013306;28;19926;-76
2021/09/03 02:47:17;;;;;;;;;;;7.50;92.70;;;;;;5012370;28;19928;-77
2021/09/03 02:49:43;;;;;;;;;;;7.40;92.70;;;;;;5016612;28;19905;-78
2021/09/03 02:52:08;;;;;;;;;;;7.40;92.70;;;;;;5016228;28;20008;-76
2021/09/03 02:54:34;;;;;;;;;;;7.40;92.60;;;;;;5015949;28;19905;-76
2021/09/03 02:57:00;;;;;;;;;;;7.50;92.70;;;;;;5014360;28;20399;-77
2021/09/03 02:59:25;;;;;;;;;;;7.50;92.70;;;;;;5014519;28;20332;-78
2021/09/03 03:01:51;;;;;;;;;;;7.50;92.70;;;;;;5015820;28;19960;-78
2021/09/03 03:04:16;;;;;;;;;;;7.50;92.70;;;;;;5015710;28;19910;-79
2021/09/03 03:06:42;;;;;;;;;;;7.50;92.70;;;;;;5015768;28;19933;-78
2021/09/03 03:09:08;;;;;;;;;;;7.60;92.70;;;;;;5015452;28;19909;-80
2021/09/03 03:11:33;;;;;;;;;;;7.60;92.90;;;;;;5015504;28;19952;-78
2021/09/03 03:14:03;;;;;;;;;;;7.70;92.70;;;;;;5014233;28;19945;-78
2021/09/03 03:16:29;;;;;;;;;;;7.70;92.70;;;;;;5014899;28;19923;-80
2021/09/03 03:18:55;;;;;;;;;;;7.80;92.80;;;;;;5014062;28;20000;-79
2021/09/03 03:21:20;;;;;;;;;;;7.80;92.80;;;;;;5015368;28;19913;-78
2021/09/03 03:23:46;;;;;;;;;;;7.90;92.80;;;;;;5015545;28;19909;-79
2021/09/03 03:26:12;;;;;;;;;;;7.90;92.70;;;;;;4998559;28;20252;-79
2021/09/03 03:28:37;;;;;;;;;;;8.00;92.60;;;;;;5016458;28;20374;-78
2021/09/03 03:31:03;;;;;;;;;;;8.10;92.50;;;;;;5001166;28;19909;-80
2021/09/03 03:33:29;;;;;;;;;;;8.20;92.50;;;;;;5013897;28;19909;-77
2021/09/03 03:35:54;;;;;;;;;;;8.20;92.40;;;;;;5013441;28;19917;-79
2021/09/03 03:38:20;;;;;;;;;;;8.30;92.30;;;;;;5015161;28;19905;-79
2021/09/03 03:40:45;;;;;;;;;;;8.40;92.30;;;;;;5009350;28;19909;-79
2021/09/03 03:43:11;;;;;;;;;;;8.50;92.20;;;;;;5014520;28;20356;-78
2021/09/03 03:45:37;;;;;;;;;;;8.50;92.30;;;;;;5011426;28;19909;-78
2021/09/03 03:48:02;;;;;;;;;;;8.60;92.00;;;;;;5014928;28;19984;-79
2021/09/03 03:50:28;;;;;;;;;;;8.70;92.00;;;;;;5014758;28;20235;-78
2021/09/03 03:52:54;;;;;;;;;;;8.70;91.70;;;;;;5014901;28;19905;-78
2021/09/03 03:55:20;;;;;;;;;;;8.70;91.60;;;;;;5014760;28;19909;-79
2021/09/03 03:57:46;;;;;;;;;;;8.70;91.50;;;;;;5014856;28;20358;-78
2021/09/03 04:00:12;;;;;;;;;;;8.80;91.50;;;;;;5014718;28;19952;-79
2021/09/03 04:02:37;;;;;;;;;;;8.90;91.40;;;;;;5014497;28;19960;-81
2021/09/03 04:05:04;;;;;;;;;;;9.00;91.30;;;;;;5015001;28;20366;-80
2021/09/03 04:07:29;;;;;;;;;;;9.00;91.10;;;;;;5014495;28;19906;-79
2021/09/03 04:09:55;;;;;;;;;;;9.00;90.90;;;;;;5014728;28;19940;-79
2021/09/03 04:12:20;;;;;;;;;;;9.20;91.00;;;;;;5014315;28;19928;-81
2021/09/03 04:14:46;;;;;;;;;;;9.40;91.00;;;;;;5014524;28;19909;-79
2021/09/03 04:17:12;;;;;;;;;;;9.70;90.70;;;;;;5014790;28;20371;-79
2021/09/03 04:19:37;;;;;;;;;;;9.80;89.90;;;;;;5017447;28;19965;-79
2021/09/03 04:22:03;;;;;;;;;;;10.00;89.80;;;;;;5017078;28;20000;-80
2021/09/03 04:24:29;;;;;;;;;;;10.30;89.50;;;;;;5015231;28;19909;-78
2021/09/03 04:26:56;;;;;;;;;;;10.70;89.60;;;;;;5014689;28;20000;-79
2021/09/03 04:29:23;;;;;;;;;;;10.80;87.20;;;;;;5014047;28;19906;-79
2021/09/03 04:31:48;;;;;;;;;;;10.90;86.40;;;;;;5014223;28;19912;-78
2021/09/03 04:34:14;;;;;;;;;;;10.80;85.10;;;;;;5013882;28;19999;-79
2021/09/03 04:36:40;;;;;;;;;;;10.70;84.80;;;;;;5013773;28;19979;-80
2021/09/03 04:39:05;;;;;;;;;;;10.70;84.90;;;;;;5013942;28;20377;-79
2021/09/03 04:41:31;;;;;;;;;;;10.70;85.20;;;;;;5013865;28;20473;-80
2021/09/03 04:43:57;;;;;;;;;;;10.80;85.00;;;;;;5012144;28;19992;-80
2021/09/03 04:46:22;;;;;;;;;;;10.70;84.90;;;;;;5013878;28;20279;-80
2021/09/03 04:48:50;;;;;;;;;;;10.60;84.50;;;;;;5013824;28;19973;-80
2021/09/03 04:51:15;;;;;;;;;;;10.30;84.40;;;;;;5013858;28;19963;-80
2021/09/03 04:53:41;;;;;;;;;;;10.20;84.70;;;;;;5012082;28;20275;-80
2021/09/03 04:56:06;;;;;;;;;;;10.20;85.20;;;;;;5013305;28;19924;-82
2021/09/03 04:58:32;;;;;;;;;;;10.20;85.40;;;;;;5013646;28;19906;-79
2021/09/03 05:00:58;;;;;;;;;;;10.30;85.60;;;;;;5013293;28;19959;-80
2021/09/03 05:03:23;;;;;;;;;;;10.40;85.80;;;;;;5013599;28;19952;-80
2021/09/03 05:05:49;;;;;;;;;;;10.60;85.80;;;;;;5013339;28;20283;-79
2021/09/03 05:08:15;;;;;;;;;;;10.80;85.60;;;;;;5013310;28;20321;-78
2021/09/03 05:10:40;;;;;;;;;;;11.00;84.90;;;;;;5011889;28;19917;-79
2021/09/03 05:13:06;;;;;;;;;;;11.10;84.70;;;;;;5013231;28;20359;-80
2021/09/03 05:15:36;;;;;;;;;;;11.30;84.20;;;;;;5011748;28;19931;-80
2021/09/03 05:18:02;;;;;;;;;;;11.30;84.10;;;;;;5010706;28;19913;-79
2021/09/03 05:20:28;;;;;;;;;;;11.40;83.30;;;;;;5012964;28;20004;-80
2021/09/03 05:22:54;;;;;;;;;;;11.40;83.10;;;;;;5012449;28;20003;-81
2021/09/03 05:25:20;;;;;;;;;;;11.50;83.20;;;;;;5012914;28;19905;-79
2021/09/03 05:27:45;;;;;;;;;;;11.60;82.90;;;;;;5012920;28;19905;-79
2021/09/03 05:30:11;;;;;;;;;;;11.80;82.90;;;;;;5012643;28;19947;-80
2021/09/03 05:32:37;;;;;;;;;;;12.00;82.40;;;;;;5012726;28;20412;-80
2021/09/03 05:35:04;;;;;;;;;;;12.10;81.90;;;;;;5013977;28;19906;-79
2021/09/03 05:37:30;;;;;;;;;;;12.30;81.80;;;;;;5013649;28;19957;-79
2021/09/03 05:39:58;;;;;;;;;;;12.40;80.40;;;;;;5013120;28;20258;-80
2021/09/03 05:42:24;;;;;;;;;;;12.70;80.20;;;;;;5013975;28;19926;-81
2021/09/03 05:44:50;;;;;;;;;;;12.90;79.40;;;;;;5014664;28;19924;-80
2021/09/03 05:47:15;;;;;;;;;;;13.00;78.20;;;;;;5013333;28;20373;-81
2021/09/03 05:49:41;;;;;;;;;;;13.20;78.20;;;;;;5012464;28;20400;-81
2021/09/03 05:52:07;;;;;;;;;;;13.50;77.70;;;;;;5009655;28;20371;-79
2021/09/03 05:54:32;;;;;;;;;;;13.80;77.20;;;;;;5012928;28;19959;-80
2021/09/03 05:56:58;;;;;;;;;;;13.80;74.70;;;;;;5007759;28;20367;-79
2021/09/03 05:59:23;;;;;;;;;;;13.90;74.40;;;;;;5010738;28;20339;-79
2021/09/03 06:01:49;;;;;;;;;;;13.80;73.30;;;;;;5008147;28;19916;-80
2021/09/03 06:04:15;;;;;;;;;;;13.90;73.30;;;;;;5012744;28;20015;-81
2021/09/03 06:06:40;;;;;;;;;;;14.10;73.10;;;;;;5006938;28;19910;-81
2021/09/03 06:09:06;;;;;;;;;;;14.10;72.70;;;;;;5012712;28;20373;-79
2021/09/03 06:11:32;;;;;;;;;;;14.00;71.60;;;;;;5013213;28;19909;-82
2021/09/03 06:13:57;;;;;;;;;;;14.40;72.20;;;;;;5013752;28;19905;-81
2021/09/03 06:16:26;;;;;;;;;;;14.90;71.00;;;;;;5013551;28;20416;-79
2021/09/03 06:18:51;;;;;;;;;;;15.60;69.20;;;;;;5012068;28;19912;-81
2021/09/03 06:21:17;;;;;;;;;;;16.50;67.60;;;;;;5012739;28;19906;-81
2021/09/03 06:23:43;;;;;;;;;;;18.20;65.50;;;;;;5013211;28;19905;-82
2021/09/03 06:26:09;;;;;;;;;;;19.60;61.00;;;;;;5014754;28;19959;-80
2021/09/03 06:28:35;;;;;;;;;;;19.80;57.60;;;;;;5014637;28;19905;-80
2021/09/03 06:31:00;;;;;;;;;;;21.20;58.30;;;;;;5014752;28;19912;-82
2021/09/03 06:33:26;;;;;;;;;;;22.50;56.70;;;;;;5015368;28;19906;-81
2021/09/03 06:35:51;;;;;;;;;;;24.00;55.10;;;;;;5012460;28;20010;-81
2021/09/03 06:38:17;;;;;;;;;;;25.00;51.30;;;;;;5012357;28;19905;-82
2021/09/03 06:40:43;;;;;;;;;;;25.20;49.40;;;;;;5011725;28;20000;-80
2021/09/03 06:43:08;;;;;;;;;;;25.60;46.50;;;;;;5012334;28;19905;-81
2021/09/03 06:45:34;;;;;;;;;;;25.20;45.50;;;;;;5012605;28;19912;-79
2021/09/03 06:48:00;;;;;;;;;;;25.20;45.00;;;;;;5012643;28;20429;-81
2021/09/03 06:50:25;;;;;;;;;;;25.50;46.00;;;;;;5007195;28;20332;-83
2021/09/03 06:52:51;;;;;;;;;;;25.90;44.40;;;;;;5015250;28;19911;-83
2021/09/03 06:55:17;;;;;;;;;;;26.40;43.10;;;;;;5009191;28;19913;-78
2021/09/03 06:57:42;;;;;;;;;;;26.50;43.40;;;;;;5014259;28;19921;-82
2021/09/03 07:00:09;;;;;;;;;;;26.70;42.20;;;;;;5015805;28;19905;-84
2021/09/03 07:02:34;;;;;;;;;;;26.90;42.80;;;;;;5014970;28;19959;-79
2021/09/03 07:05:00;;;;;;;;;;;27.10;42.10;;;;;;5005009;28;19909;-80
2021/09/03 07:07:26;;;;;;;;;;;27.00;40.40;;;;;;5015597;28;19989;-81
2021/09/03 07:09:52;;;;;;;;;;;26.50;38.80;;;;;;5016000;28;19906;-82
2021/09/03 07:12:18;;;;;;;;;;;26.30;40.20;;;;;;5016375;28;19905;-79
2021/09/03 07:14:44;;;;;;;;;;;26.80;40.30;;;;;;5016333;28;19959;-81
2021/09/03 07:17:10;;;;;;;;;;;25.40;38.90;;;;;;5016602;28;19914;-80
2021/09/03 07:19:36;;;;;;;;;;;24.80;40.40;;;;;;5014364;28;19905;-80
2021/09/03 07:22:03;;;;;;;;;;;25.50;40.90;;;;;;5015443;28;20004;-80
2021/09/03 07:24:28;;;;;;;;;;;25.60;40.40;;;;;;5015410;28;19956;-79
2021/09/03 07:26:54;;;;;;;;;;;25.60;40.10;;;;;;5013891;28;20318;-81
2021/09/03 07:29:20;;;;;;;;;;;25.60;40.70;;;;;;5015151;28;19912;-78
2021/09/03 07:31:46;;;;;;;;;;;25.00;40.50;;;;;;5013687;28;20418;-80
2021/09/03 07:34:11;;;;;;;;;;;23.70;41.10;;;;;;5014092;28;19913;-79
2021/09/03 07:36:37;;;;;;;;;;;23.00;42.50;;;;;;5014055;28;20019;-80
2021/09/03 07:39:03;;;;;;;;;;;22.00;42.80;;;;;;5012174;28;19909;-79
2021/09/03 07:41:29;;;;;;;;;;;20.90;43.80;;;;;;5018393;28;19913;-79
2021/09/03 07:43:54;;;;;;;;;;;19.70;44.90;;;;;;5023363;28;19964;-81
2021/09/03 07:46:20;;;;;;;;;;;18.50;47.10;;;;;;5016128;28;19909;-81
2021/09/03 07:48:46;;;;;;;;;;;17.90;48.60;;;;;;5015180;28;20000;-79
2021/09/03 07:51:11;;;;;;;;;;;17.30;50.10;;;;;;5015214;28;19925;-81
2021/09/03 07:53:37;;;;;;;;;;;17.20;51.40;;;;;;5014819;28;19905;-81
2021/09/03 07:56:04;;;;;;;;;;;17.10;51.90;;;;;;5013107;28;19909;-81
2021/09/03 07:58:29;;;;;;;;;;;17.00;52.50;;;;;;5014036;28;19912;-79
2021/09/03 08:00:55;;;;;;;;;;;17.20;52.60;;;;;;5014708;28;19905;-80
2021/09/03 08:03:21;;;;;;;;;;;17.10;53.20;;;;;;5012468;28;19912;-79
2021/09/03 08:05:47;;;;;;;;;;;16.80;54.00;;;;;;5014457;28;20043;-79
2021/09/03 08:08:12;;;;;;;;;;;16.80;54.00;;;;;;5014511;28;19957;-81
2021/09/03 08:10:38;;;;;;;;;;;16.90;54.60;;;;;;5013448;28;19905;-79
2021/09/03 08:13:05;;;;;;;;;;;16.40;55.60;;;;;;5014944;28;20446;-81
2021/09/03 08:15:31;;;;;;;;;;;15.80;57.50;;;;;;5015162;28;19905;-81
2021/09/03 08:17:57;;;;;;;;;;;15.40;58.80;;;;;;5014749;28;19917;-80
2021/09/03 08:20:23;;;;;;;;;;;15.00;60.40;;;;;;5014631;28;19967;-79
2021/09/03 08:22:51;;;;;;;;;;;14.70;61.60;;;;;;5014500;28;19906;-80
2021/09/03 08:25:17;;;;;;;;;;;14.20;63.20;;;;;;5014717;28;19909;-81
2021/09/03 08:27:43;;;;;;;;;;;13.80;65.60;;;;;;5013189;28;20359;-79
2021/09/03 08:30:09;;;;;;;;;;;13.40;68.60;;;;;;5014189;28;19913;-79
2021/09/03 08:32:34;;;;;;;;;;;13.00;71.50;;;;;;5014413;28;20277;-80
2021/09/03 08:35:00;;;;;;;;;;;12.90;72.40;;;;;;5013472;28;19909;-80
2021/09/03 08:37:26;;;;;;;;;;;12.70;74.70;;;;;;5014474;28;19914;-81
2021/09/03 08:39:52;;;;;;;;;;;12.60;76.70;;;;;;5016207;28;19970;-80
2021/09/03 08:42:17;;;;;;;;;;;12.70;76.30;;;;;;5014116;28;19906;-81
2021/09/03 08:44:44;;;;;;;;;;;12.70;76.80;;;;;;5013899;28;19970;-79
2021/09/03 08:47:10;;;;;;;;;;;12.80;76.90;;;;;;5012676;28;19905;-82
2021/09/03 08:49:35;;;;;;;;;;;12.70;77.30;;;;;;5014339;28;19916;-81
2021/09/03 08:52:01;;;;;;;;;;;12.90;77.90;;;;;;5014586;28;19909;-80
2021/09/03 08:54:26;;;;;;;;;;;13.00;77.40;;;;;;5014594;28;19913;-80
2021/09/03 08:56:52;;;;;;;;;;;13.00;77.60;;;;;;5015166;28;20477;-82
2021/09/03 08:59:18;;;;;;;;;;;13.10;77.50;;;;;;5014082;28;19951;-80
2021/09/03 09:01:43;;;;;;;;;;;13.30;77.60;;;;;;5013969;28;20011;-80
2021/09/03 09:04:14;;;;;;;;;;;13.40;77.00;;;;;;5012567;28;19909;-82
2021/09/03 09:06:59;;;;;;;;;;;13.40;77.50;;;;;;5014042;28;19905;-82
2021/09/03 09:09:32;;;;;;;;;;;13.40;76.60;;;;;;5012418;28;19905;-79
2021/09/03 09:12:04;;;;;;;;;;;13.40;76.80;;;;;;5012560;28;19911;-80
2021/09/03 09:14:30;;;;;;;;;;;13.40;76.60;;;;;;5013313;28;19906;-82
2021/09/03 09:17:02;;;;;;;;;;;13.20;76.90;;;;;;5012010;28;20220;-82
2021/09/03 09:19:28;;;;;;;;;;;13.10;77.40;;;;;;5013077;28;19992;-81
2021/09/03 09:21:59;;;;;;;;;;;13.20;77.60;;;;;;5012150;28;19933;-81
2021/09/03 09:24:25;;;;;;;;;;;13.40;77.40;;;;;;5013542;28;19909;-79
2021/09/03 09:26:52;;;;;;;;;;;13.60;77.10;;;;;;5013488;28;19912;-79
2021/09/03 09:29:21;;;;;;;;;;;13.60;76.80;;;;;;5013374;28;20346;-81
2021/09/03 09:31:49;;;;;;;;;;;13.60;76.70;;;;;;5013130;28;19945;-81
2021/09/03 09:34:19;;;;;;;;;;;13.30;77.00;;;;;;5013213;28;19906;-80
2021/09/03 09:36:46;;;;;;;;;;;13.20;77.90;;;;;;4999183;28;20331;-81
2021/09/03 09:39:12;;;;;;;;;;;13.30;78.30;;;;;;5011878;28;20358;-82
2021/09/03 09:41:37;;;;;;;;;;;13.30;78.30;;;;;;5011887;28;20370;-81
2021/09/03 09:44:03;;;;;;;;;;;13.30;78.00;;;;;;5013460;28;19928;-80
2021/09/03 09:46:30;;;;;;;;;;;13.00;78.30;;;;;;5013747;28;19920;-81
2021/09/03 09:49:02;;;;;;;;;;;12.90;79.10;;;;;;5014097;28;19917;-80
2021/09/03 09:51:31;;;;;;;;;;;13.00;79.60;;;;;;5012520;28;19955;-80
2021/09/03 09:54:09;;;;;;;;;;;13.10;79.60;;;;;;5012824;28;19963;-80
2021/09/03 09:56:40;;;;;;;;;;;13.30;79.30;;;;;;5012832;28;19918;-81
2021/09/03 09:59:07;;;;;;;;;;;13.30;78.90;;;;;;5013001;28;19965;-81
2021/09/03 10:01:36;;;;;;;;;;;13.20;78.80;;;;;;5013339;28;19905;-80
2021/09/03 10:04:03;;;;;;;;;;;13.10;79.50;;;;;;5012760;28;19951;-80
2021/09/03 10:06:30;;;;;;;;;;;13.10;79.50;;;;;;5013119;28;19913;-83
2021/09/03 10:08:57;;;;;;;;;;;13.00;80.20;;;;;;5011904;28;19957;-80
2021/09/03 10:11:23;;;;;;;;;;;13.10;80.30;;;;;;5013030;28;19905;-80
2021/09/03 10:13:49;;;;;;;;;;;13.10;80.40;;;;;;5012435;28;20394;-79
2021/09/03 10:16:15;;;;;;;;;;;13.20;80.30;;;;;;5012828;28;19913;-81
2021/09/03 10:18:42;;;;;;;;;;;13.20;80.30;;;;;;5011702;28;19906;-80
2021/09/03 10:21:08;;;;;;;;;;;13.20;80.10;;;;;;5012996;28;20000;-80
2021/09/03 10:23:46;;;;;;;;;;;13.00;80.50;;;;;;5013013;28;20438;-80
2021/09/03 10:26:12;;;;;;;;;;;12.90;81.20;;;;;;5013164;28;19960;-79
2021/09/03 10:28:37;;;;;;;;;;;12.90;81.60;;;;;;5016348;28;19921;-81
2021/09/03 10:31:07;;;;;;;;;;;12.80;81.80;;;;;;5016665;28;20011;-80
2021/09/03 10:33:33;;;;;;;;;;;12.80;82.10;;;;;;5015674;28;19958;-79
2021/09/03 10:35:59;;;;;;;;;;;12.80;82.20;;;;;;5009075;28;20413;-81
2021/09/03 10:38:28;;;;;;;;;;;12.70;82.20;;;;;;5017387;28;20047;-79
2021/09/03 10:40:54;;;;;;;;;;;12.70;82.60;;;;;;5017132;28;20008;-78
2021/09/03 10:43:38;;;;;;;;;;;12.70;82.70;;;;;;5014701;28;20011;-79
2021/09/03 10:46:05;;;;;;;;;;;12.60;82.90;;;;;;5002853;28;19952;-80
2021/09/03 10:48:32;;;;;;;;;;;12.50;83.70;;;;;;5016343;28;19997;-80
2021/09/03 10:50:59;;;;;;;;;;;12.60;84.00;;;;;;5016496;28;19905;-80
2021/09/03 10:53:35;;;;;;;;;;;12.60;84.00;;;;;;5016746;28;20291;-80
2021/09/03 10:56:03;;;;;;;;;;;12.70;84.10;;;;;;5016138;28;20259;-78
2021/09/03 10:58:49;;;;;;;;;;;12.70;83.90;;;;;;5015070;28;20385;-80
2021/09/03 11:01:17;;;;;;;;;;;12.70;84.20;;;;;;5015981;28;19909;-80
2021/09/03 11:03:47;;;;;;;;;;;12.70;84.50;;;;;;5015909;28;19906;-79
2021/09/03 11:06:14;;;;;;;;;;;12.70;84.20;;;;;;5016050;28;19913;-80
2021/09/03 11:08:40;;;;;;;;;;;12.70;84.20;;;;;;5015774;28;19952;-80
2021/09/03 11:11:24;;;;;;;;;;;12.60;84.30;;;;;;5015650;28;19906;-79
2021/09/03 11:13:51;;;;;;;;;;;12.60;84.50;;;;;;5014540;28;20358;-80
2021/09/03 11:16:35;;;;;;;;;;;12.60;84.60;;;;;;5014257;28;20156;-80
2021/09/03 11:19:00;;;;;;;;;;;12.60;84.80;;;;;;5015663;28;19906;-81
2021/09/03 11:21:30;;;;;;;;;;;12.70;84.80;;;;;;5015835;28;20004;-80
2021/09/03 11:23:56;;;;;;;;;;;12.80;84.60;;;;;;5014373;28;19905;-79
2021/09/03 11:26:22;;;;;;;;;;;13.00;84.70;;;;;;5014253;28;19905;-82
2021/09/03 11:28:47;;;;;;;;;;;13.10;84.10;;;;;;5016322;28;19996;-79
2021/09/03 11:31:13;;;;;;;;;;;13.20;83.80;;;;;;5017875;28;19909;-80
2021/09/03 11:33:45;;;;;;;;;;;13.40;83.60;;;;;;5010039;28;20326;-79
2021/09/03 11:36:11;;;;;;;;;;;13.70;82.80;;;;;;5015617;28;19957;-80
2021/09/03 11:38:37;;;;;;;;;;;13.70;81.80;;;;;;5014240;28;20018;-82
2021/09/03 11:41:09;;;;;;;;;;;13.70;81.80;;;;;;5015593;28;20000;-81
2021/09/03 11:43:35;;;;;;;;;;;13.70;81.90;;;;;;5014008;28;19921;-81
2021/09/03 11:46:12;;;;;;;;;;;13.70;81.50;;;;;;5014005;28;19985;-80
2021/09/03 11:48:38;;;;;;;;;;;13.70;81.50;;;;;;5014401;28;19909;-82
2021/09/03 11:51:04;;;;;;;;;;;13.60;81.60;;;;;;5013833;28;20389;-79
2021/09/03 11:53:29;;;;;;;;;;;13.50;81.60;;;;;;5014285;28;19905;-80
2021/09/03 11:55:55;;;;;;;;;;;13.60;81.80;;;;;;5017396;28;19959;-82
2021/09/03 11:58:25;;;;;;;;;;;13.70;81.70;;;;;;5016718;28;19913;-80
2021/09/03 12:00:52;;;;;;;;;;;13.60;81.20;;;;;;5014045;28;20294;-80
2021/09/03 12:03:27;;;;;;;;;;;13.60;81.30;;;;;;5015556;28;20387;-82
2021/09/03 12:05:53;;;;;;;;;;;13.60;81.50;;;;;;5014053;28;20322;-81
2021/09/03 12:08:22;;;;;;;;;;;13.80;81.30;;;;;;5015522;28;20000;-81
2021/09/03 12:10:47;;;;;;;;;;;13.70;80.70;;;;;;5017092;28;19905;-80
2021/09/03 12:13:15;;;;;;;;;;;13.80;81.10;;;;;;5014328;28;19905;-81
2021/09/03 12:15:42;;;;;;;;;;;13.90;81.00;;;;;;5015221;28;20321;-79
2021/09/03 12:18:17;;;;;;;;;;;14.20;80.80;;;;;;5014680;28;19920;-80
2021/09/03 12:20:46;;;;;;;;;;;14.60;80.20;;;;;;5013334;28;19909;-81
2021/09/03 12:23:13;;;;;;;;;;;14.70;78.90;;;;;;5013549;28;19955;-80
2021/09/03 12:25:39;;;;;;;;;;;14.90;78.20;;;;;;5014856;28;19958;-80
2021/09/03 12:28:06;;;;;;;;;;;14.90;77.70;;;;;;5013466;28;20430;-79
2021/09/03 12:30:32;;;;;;;;;;;15.10;77.80;;;;;;5014156;28;20003;-80
2021/09/03 12:33:24;;;;;;;;;;;15.30;77.40;;;;;;5008795;28;19910;-80
2021/09/03 12:35:50;;;;;;;;;;;15.40;76.50;;;;;;5012121;28;19984;-80
2021/09/03 12:38:17;;;;;;;;;;;15.30;76.00;;;;;;5013211;28;19997;-79
2021/09/03 12:40:43;;;;;;;;;;;15.20;75.90;;;;;;5014971;28;19905;-79
2021/09/03 12:43:14;;;;;;;;;;;15.00;76.00;;;;;;5014092;28;19905;-80
2021/09/03 12:45:44;;;;;;;;;;;14.80;76.40;;;;;;5014157;28;19913;-81
2021/09/03 12:48:10;;;;;;;;;;;14.70;76.70;;;;;;5013049;28;19905;-81
2021/09/03 12:50:36;;;;;;;;;;;14.60;77.20;;;;;;5013816;28;19997;-78
2021/09/03 12:53:03;;;;;;;;;;;14.40;77.90;;;;;;5014328;28;19906;-83
2021/09/03 12:55:31;;;;;;;;;;;14.20;78.60;;;;;;5014547;28;19976;-80
2021/09/03 12:57:57;;;;;;;;;;;14.20;79.10;;;;;;5014635;28;20000;-81
2021/09/03 13:00:23;;;;;;;;;;;14.30;79.10;;;;;;5016519;28;19943;-81
2021/09/03 13:02:48;;;;;;;;;;;14.30;79.10;;;;;;5016055;28;19989;-80
2021/09/03 13:05:14;;;;;;;;;;;14.40;79.30;;;;;;5015619;28;19905;-80
2021/09/03 13:07:39;;;;;;;;;;;14.50;79.10;;;;;;5014658;28;19956;-81
2021/09/03 13:10:05;;;;;;;;;;;14.50;78.60;;;;;;5013121;28;19943;-81
2021/09/03 13:12:31;;;;;;;;;;;14.60;78.40;;;;;;5013877;28;19905;-82
2021/09/03 13:14:57;;;;;;;;;;;14.80;78.40;;;;;;5013824;28;19916;-79
2021/09/03 13:17:22;;;;;;;;;;;15.00;78.00;;;;;;5013630;28;19966;-81
2021/09/03 13:19:48;;;;;;;;;;;15.10;77.50;;;;;;5013657;28;19944;-82
2021/09/03 13:22:13;;;;;;;;;;;15.20;77.10;;;;;;5013653;28;20350;-80
2021/09/03 13:24:40;;;;;;;;;;;15.30;76.60;;;;;;5013412;28;20385;-80
2021/09/03 13:27:05;;;;;;;;;;;15.10;76.50;;;;;;5013621;28;19957;-80
2021/09/03 13:29:31;;;;;;;;;;;15.00;77.30;;;;;;5010223;28;19952;-81
2021/09/03 13:31:57;;;;;;;;;;;14.90;77.70;;;;;;4998908;28;19905;-81
2021/09/03 13:34:24;;;;;;;;;;;14.90;77.70;;;;;;5012512;28;20347;-80
2021/09/03 13:36:50;;;;;;;;;;;14.80;77.90;;;;;;5013291;28;20358;-81
2021/09/03 13:39:16;;;;;;;;;;;14.40;78.60;;;;;;5013810;28;20118;-80
2021/09/03 13:41:41;;;;;;;;;;;14.00;81.00;;;;;;5012492;28;19912;-79
2021/09/03 13:44:07;;;;;;;;;;;13.30;84.30;;;;;;5013787;28;20337;-82
2021/09/03 13:46:33;;;;;;;;;;;12.80;88.10;;;;;;5013871;28;19905;-80
2021/09/03 13:49:01;;;;;;;;;;;12.60;90.50;;;;;;5013756;28;20001;-80
2021/09/03 13:51:27;;;;;;;;;;;12.30;91.70;;;;;;5013605;28;20274;-80
2021/09/03 13:53:52;;;;;;;;;;;12.20;92.30;;;;;;5013236;28;19912;-81
2021/09/03 13:56:18;;;;;;;;;;;12.20;92.70;;;;;;5014029;28;19909;-81
2021/09/03 13:58:44;;;;;;;;;;;12.10;93.20;;;;;;5013705;28;19912;-82
2021/09/03 14:01:10;;;;;;;;;;;12.00;93.80;;;;;;5014376;28;19949;-83
2021/09/03 14:03:35;;;;;;;;;;;12.00;94.20;;;;;;5018728;28;20251;-81
2021/09/03 14:06:01;;;;;;;;;;;12.00;94.60;;;;;;5016690;28;19977;-81
2021/09/03 14:08:27;;;;;;;;;;;12.00;95.00;;;;;;5016287;28;20282;-83
2021/09/03 14:10:53;;;;;;;;;;;12.00;95.30;;;;;;5019225;28;19909;-82
2021/09/03 14:13:19;;;;;;;;;;;11.90;95.70;;;;;;5016942;28;19906;-81
2021/09/03 14:15:45;;;;;;;;;;;11.40;94.30;;;;;;5017273;28;19905;-80
2021/09/03 14:18:11;;;;;;;;;;;10.90;94.20;;;;;;5015691;28;19914;-80